createdAt,value
2023-01-29T10:07:33.481Z,81.10
2023-01-29T10:10:21.022Z,81.20
2023-01-29T10:13:08.648Z,81.10
2023-01-29T10:15:46.688Z,81.00
2023-01-29T10:18:48.163Z,81.00
2023-01-29T10:21:39.068Z,80.70
2023-01-29T10:24:17.307Z,80.70
2023-01-29T10:26:46.959Z,80.80
2023-01-29T10:29:20.161Z,80.30
2023-01-29T10:31:53.421Z,80.50
2023-01-29T10:34:29.550Z,80.50
2023-01-29T10:36:57.768Z,80.40
2023-01-29T10:39:27.478Z,80.50
2023-01-29T10:42:13.951Z,80.30
2023-01-29T10:44:54.341Z,80.20
2023-01-29T10:47:36.387Z,80.20
2023-01-29T10:50:18.827Z,80.20
2023-01-29T10:53:06.139Z,80.20
2023-01-29T10:55:44.729Z,80.50
2023-01-29T10:58:27.535Z,80.50
2023-01-29T11:00:55.405Z,80.40
2023-01-29T11:03:28.229Z,80.30
2023-01-29T11:06:02.511Z,80.20
2023-01-29T11:08:36.102Z,80.40
2023-01-29T11:11:10.316Z,80.50
2023-01-29T11:13:44.737Z,80.40
2023-01-29T11:16:15.369Z,80.50
2023-01-29T11:18:57.892Z,80.30
2023-01-29T11:21:28.095Z,80.00
2023-01-29T11:24:12.692Z,80.30
2023-01-29T11:26:43.318Z,80.30
2023-01-29T11:29:38.304Z,80.30
2023-01-29T11:32:08.285Z,80.10
2023-01-29T11:34:36.613Z,80.20
2023-01-29T11:37:17.783Z,80.10
2023-01-29T11:39:47.427Z,80.00
2023-01-29T11:42:21.442Z,79.90
2023-01-29T11:44:51.267Z,80.10
2023-01-29T11:47:23.830Z,80.00
2023-01-29T11:49:53.606Z,80.10
2023-01-29T11:52:24.717Z,80.30
2023-01-29T11:54:56.368Z,80.20
2023-01-29T11:57:29.793Z,80.10
2023-01-29T12:00:02.630Z,80.10
2023-01-29T12:02:38.124Z,80.20
2023-01-29T12:05:15.069Z,80.10
2023-01-29T12:07:45.559Z,80.30
2023-01-29T12:10:32.496Z,80.40
2023-01-29T12:13:07.293Z,80.50
2023-01-29T12:15:37.321Z,80.90
2023-01-29T12:18:13.892Z,80.50
2023-01-29T12:20:45.651Z,80.60
2023-01-29T12:23:28.309Z,80.70
2023-01-29T12:26:02.138Z,80.70
2023-01-29T12:28:49.464Z,80.80
2023-01-29T12:31:27.441Z,80.80
2023-01-29T12:34:02.364Z,80.80
2023-01-29T12:36:36.338Z,80.90
2023-01-29T12:39:05.004Z,81.10
2023-01-29T12:41:40.409Z,81.00
2023-01-29T12:44:15.432Z,81.30
2023-01-29T12:46:50.424Z,81.10
2023-01-29T12:49:24.266Z,81.20
2023-01-29T12:52:00.052Z,81.20
2023-01-29T12:54:38.346Z,81.20
2023-01-29T12:57:15.998Z,81.70
2023-01-29T12:59:47.083Z,81.30
2023-01-29T13:02:31.227Z,81.20
2023-01-29T13:05:04.241Z,81.00
2023-01-29T13:07:36.814Z,81.20
2023-01-29T13:10:09.677Z,81.10
2023-01-29T13:12:39.745Z,81.30
2023-01-29T13:15:18.642Z,81.30
2023-01-29T13:17:52.485Z,81.40
2023-01-29T13:20:25.173Z,81.40
2023-01-29T13:22:55.396Z,81.60
2023-01-29T13:25:23.314Z,81.60
2023-01-29T13:27:51.614Z,81.50
2023-01-29T13:30:27.997Z,81.70
2023-01-29T13:33:09.376Z,82.00
2023-01-29T13:35:41.353Z,82.00
2023-01-29T13:38:24.887Z,82.10
2023-01-29T13:40:53.779Z,82.10
2023-01-29T13:43:23.866Z,82.10
2023-01-29T13:45:53.900Z,82.00
2023-01-29T13:48:28.237Z,82.00
2023-01-29T13:50:57.721Z,81.70
2023-01-29T13:53:28.571Z,81.70
2023-01-29T13:55:56.716Z,81.90
2023-01-29T13:58:54.407Z,81.80
2023-01-29T14:01:55.650Z,82.00
2023-01-29T14:04:29.634Z,81.90
2023-01-29T14:06:58.666Z,81.80
2023-01-29T14:09:48.628Z,81.90
2023-01-29T14:12:47.877Z,81.90
2023-01-29T14:15:22.169Z,82.00
2023-01-29T14:18:00.670Z,82.00
2023-01-29T14:20:46.449Z,81.90
2023-01-29T14:23:28.529Z,82.00
2023-01-29T14:25:57.258Z,82.00
2023-01-29T14:28:29.333Z,82.10
2023-01-29T14:30:57.849Z,81.90
2023-01-29T14:33:29.827Z,82.10
2023-01-29T14:35:59.499Z,82.20
2023-01-29T14:38:29.755Z,82.20
2023-01-29T14:41:09.843Z,82.10
2023-01-29T14:43:37.731Z,82.10
2023-01-29T14:46:44.052Z,82.20
2023-01-29T14:49:12.465Z,82.30
2023-01-29T14:51:45.894Z,82.40
2023-01-29T14:54:23.667Z,83.10
2023-01-29T14:56:59.681Z,82.40
2023-01-29T14:59:33.807Z,82.40
2023-01-29T15:02:12.755Z,82.50
2023-01-29T15:04:45.945Z,82.50
2023-01-29T15:07:26.371Z,82.40
2023-01-29T15:10:18.851Z,82.40
2023-01-29T15:12:51.894Z,82.40
2023-01-29T15:15:27.504Z,82.50
2023-01-29T15:18:00.810Z,82.60
2023-01-29T15:20:34.311Z,82.60
2023-01-29T15:23:07.018Z,82.60
2023-01-29T15:25:38.200Z,82.50
2023-01-29T15:28:12.282Z,82.60
2023-01-29T15:30:43.131Z,82.50
2023-01-29T15:33:12.569Z,82.40
2023-01-29T15:35:42.251Z,82.40
2023-01-29T15:38:18.601Z,82.40
2023-01-29T15:40:54.171Z,82.60
2023-01-29T15:43:24.044Z,82.30
2023-01-29T15:45:54.356Z,82.40
2023-01-29T15:48:29.229Z,80.90
2023-01-29T15:50:57.847Z,82.40
2023-01-29T15:53:32.058Z,82.40
2023-01-29T15:56:00.197Z,82.50
2023-01-29T15:58:32.102Z,82.50
2023-01-29T16:01:01.820Z,82.70
2023-01-29T16:03:33.499Z,82.70
2023-01-29T16:06:02.656Z,82.70
2023-01-29T16:08:31.969Z,83.00
2023-01-29T16:11:03.701Z,82.60
2023-01-29T16:13:33.930Z,82.70
2023-01-29T16:16:04.926Z,82.80
2023-01-29T16:18:36.427Z,83.00
2023-01-29T16:21:09.025Z,83.10
2023-01-29T16:23:43.085Z,83.00
2023-01-29T16:26:16.654Z,83.10
2023-01-29T16:28:45.920Z,83.20
2023-01-29T16:31:15.358Z,83.30
2023-01-29T16:33:45.677Z,83.40
2023-01-29T16:36:18.525Z,83.30
2023-01-29T16:38:51.847Z,83.40
2023-01-29T16:41:31.831Z,83.40
2023-01-29T16:44:01.929Z,83.60
2023-01-29T16:46:46.124Z,83.60
2023-01-29T16:49:44.655Z,83.90
2023-01-29T16:52:21.610Z,83.90
2023-01-29T16:54:50.889Z,84.10
2023-01-29T16:57:23.773Z,84.00
2023-01-29T16:59:56.841Z,84.30
2023-01-29T17:02:28.447Z,84.40
2023-01-29T17:05:01.277Z,84.30
2023-01-29T17:07:29.887Z,84.20
2023-01-29T17:10:01.630Z,84.30
2023-01-29T17:12:31.696Z,84.40
2023-01-29T17:15:01.690Z,84.50
2023-01-29T17:17:34.290Z,84.50
2023-01-29T17:20:13.953Z,84.70
2023-01-29T17:22:41.780Z,84.80
2023-01-29T17:25:15.761Z,84.80
2023-01-29T17:27:51.561Z,84.80
2023-01-29T17:30:20.864Z,84.80
2023-01-29T17:32:48.823Z,84.80
2023-01-29T17:35:18.364Z,84.70
2023-01-29T17:37:48.829Z,84.70
2023-01-29T17:40:29.383Z,83.20
2023-01-29T17:42:57.150Z,85.40
2023-01-29T17:45:25.102Z,84.50
2023-01-29T17:47:52.924Z,84.50
2023-01-29T17:50:24.418Z,84.50
2023-01-29T17:52:53.164Z,84.60
2023-01-29T17:55:22.812Z,84.40
2023-01-29T17:57:50.615Z,84.30
2023-01-29T18:00:20.572Z,84.30
2023-01-29T18:02:48.478Z,84.40
2023-01-29T18:05:18.254Z,84.40
2023-01-29T18:07:47.929Z,84.50
2023-01-29T18:10:19.446Z,84.50
2023-01-29T18:12:48.798Z,84.60
2023-01-29T18:15:16.976Z,84.90
2023-01-29T18:17:48.329Z,84.70
2023-01-29T18:20:22.077Z,84.60
2023-01-29T18:22:50.023Z,84.90
2023-01-29T18:25:18.907Z,84.90
2023-01-29T18:27:51.593Z,84.80
2023-01-29T18:30:19.743Z,85.00
2023-01-29T18:32:48.302Z,85.00
2023-01-29T18:35:17.489Z,84.80
2023-01-29T18:37:45.619Z,84.90
2023-01-29T18:40:17.140Z,85.00
2023-01-29T18:42:47.547Z,85.00
2023-01-29T18:45:17.189Z,85.00
2023-01-29T18:47:48.579Z,85.00
2023-01-29T18:50:16.984Z,85.00
2023-01-29T18:52:44.851Z,85.10
2023-01-29T18:55:12.813Z,85.20
2023-01-29T18:58:27.204Z,85.00
2023-01-29T19:00:29.860Z,85.10
2023-01-29T19:02:57.725Z,85.20
2023-01-29T19:05:25.661Z,85.10
2023-01-29T19:07:53.615Z,85.40
2023-01-29T19:10:21.759Z,85.00
2023-01-29T19:12:49.608Z,85.30
2023-01-29T19:15:20.810Z,85.20
2023-01-29T19:17:50.052Z,85.30
2023-01-29T19:20:18.802Z,85.20
2023-01-29T19:22:46.796Z,85.20
2023-01-29T19:25:16.031Z,85.10
2023-01-29T19:27:44.666Z,85.30
2023-01-29T19:30:13.800Z,85.20
2023-01-29T19:32:41.781Z,85.40
2023-01-29T19:35:11.298Z,85.30
2023-01-29T19:37:39.152Z,85.50
2023-01-29T19:40:08.192Z,85.60
2023-01-29T19:42:37.410Z,83.40
2023-01-29T19:45:07.451Z,85.80
2023-01-29T19:47:39.768Z,85.90
2023-01-29T19:50:08.668Z,86.00
2023-01-29T19:52:50.756Z,86.00
2023-01-29T19:55:20.885Z,86.10
2023-01-29T19:57:49.335Z,86.20
2023-01-29T20:00:19.500Z,86.30
2023-01-29T20:02:47.786Z,86.40
2023-01-29T20:05:20.277Z,87.70
2023-01-29T20:07:50.555Z,86.40
2023-01-29T20:10:18.981Z,86.60
2023-01-29T20:12:50.078Z,86.70
2023-01-29T20:15:17.988Z,86.60
2023-01-29T20:17:45.973Z,86.70
2023-01-29T20:20:16.189Z,86.60
2023-01-29T20:22:44.638Z,86.60
2023-01-29T20:25:17.008Z,86.70
2023-01-29T20:27:44.881Z,87.10
2023-01-29T20:30:13.813Z,87.10
2023-01-29T20:32:41.787Z,87.20
2023-01-29T20:35:10.752Z,87.30
2023-01-29T20:37:38.676Z,87.30
2023-01-29T20:40:07.405Z,86.90
2023-01-29T20:42:36.650Z,87.60
2023-01-29T20:45:05.677Z,87.40
2023-01-29T20:47:33.503Z,87.40
2023-01-29T20:50:08.274Z,87.40
2023-01-29T20:52:36.328Z,87.40
2023-01-29T20:55:08.603Z,87.60
2023-01-29T20:57:38.296Z,87.70
2023-01-29T21:00:08.265Z,87.80
2023-01-29T21:02:36.405Z,88.10
2023-01-29T21:05:06.466Z,88.00
2023-01-29T21:07:36.000Z,88.20
2023-01-29T21:10:03.979Z,88.10
2023-01-29T21:12:31.765Z,88.30
2023-01-29T21:15:00.906Z,88.40
2023-01-29T21:17:28.740Z,88.60
2023-01-29T21:19:56.634Z,88.80
2023-01-29T21:22:24.972Z,88.90
2023-01-29T21:24:52.904Z,89.10
2023-01-29T21:27:20.711Z,89.00
2023-01-29T21:29:48.525Z,89.10
2023-01-29T21:32:18.632Z,89.80
2023-01-29T21:34:46.707Z,89.40
2023-01-29T21:37:14.740Z,89.30
2023-01-29T21:39:42.557Z,89.50
2023-01-29T21:42:42.311Z,89.60
2023-01-29T21:45:11.111Z,89.90
2023-01-29T21:47:40.278Z,89.80
2023-01-29T21:50:09.021Z,89.90
2023-01-29T21:52:36.845Z,90.10
2023-01-29T21:55:05.984Z,90.20
2023-01-29T21:57:34.033Z,90.20
2023-01-29T22:00:01.972Z,90.40
2023-01-29T22:02:31.886Z,90.30
2023-01-29T22:05:18.129Z,90.40
2023-01-29T22:07:47.719Z,90.40
2023-01-29T22:10:17.206Z,90.30
2023-01-29T22:12:46.948Z,90.60
2023-01-29T22:15:16.073Z,90.50
2023-01-29T22:17:46.485Z,90.60
2023-01-29T22:20:17.154Z,90.60
2023-01-29T22:22:45.654Z,90.70
2023-01-29T22:25:13.777Z,90.80
2023-01-29T22:27:41.756Z,90.70
2023-01-29T22:30:11.254Z,90.80
2023-01-29T22:32:39.090Z,90.80
2023-01-29T22:35:08.112Z,90.90
2023-01-29T22:37:37.345Z,91.00
2023-01-29T22:40:06.241Z,91.00
2023-01-29T22:42:34.049Z,91.00
2023-01-29T22:45:01.881Z,90.90
2023-01-29T22:47:29.687Z,91.10
2023-01-29T22:49:57.485Z,91.10
2023-01-29T22:52:27.832Z,91.20
2023-01-29T22:54:57.076Z,91.30
2023-01-29T22:57:24.902Z,91.20
2023-01-29T22:59:53.640Z,91.30
2023-01-29T23:02:21.846Z,91.60
2023-01-29T23:04:49.752Z,91.30
2023-01-29T23:07:17.595Z,91.30
2023-01-29T23:09:47.304Z,91.40
2023-01-29T23:12:16.932Z,91.40
2023-01-29T23:14:44.815Z,91.40
2023-01-29T23:17:12.806Z,91.40
2023-01-29T23:19:40.601Z,91.40
2023-01-29T23:22:08.375Z,91.60
2023-01-29T23:24:36.231Z,91.80
2023-01-29T23:27:15.211Z,91.70
2023-01-29T23:29:45.939Z,91.60
2023-01-29T23:32:16.416Z,91.80
2023-01-29T23:34:46.447Z,91.50
2023-01-29T23:37:14.879Z,91.70
2023-01-29T23:39:42.680Z,91.80
2023-01-29T23:42:10.612Z,91.80
2023-01-29T23:44:40.168Z,91.80
2023-01-29T23:47:09.872Z,92.00
2023-01-29T23:49:38.114Z,91.90
2023-01-29T23:52:08.704Z,91.90
2023-01-29T23:54:36.550Z,91.90
2023-01-29T23:57:04.840Z,91.90
2023-01-29T23:59:32.634Z,92.00
